sensor_id;sensor_type;location;lat;lon;timestamp;P1;durP1;ratioP1;P2;durP2;ratioP2
15126;SDS011;7664;52.008;4.748;2022-11-20T00:01:19;11.93;;;6.97;;
15126;SDS011;7664;52.008;4.748;2022-11-20T00:03:47;12.05;;;7.20;;
15126;SDS011;7664;52.008;4.748;2022-11-20T00:06:17;12.05;;;7.03;;
15126;SDS011;7664;52.008;4.748;2022-11-20T00:08:46;12.43;;;8.30;;
15126;SDS011;7664;52.008;4.748;2022-11-20T00:11:16;12.10;;;8.02;;
15126;SDS011;7664;52.008;4.748;2022-11-20T00:13:46;11.32;;;7.65;;
15126;SDS011;7664;52.008;4.748;2022-11-20T00:16:15;13.68;;;7.90;;
15126;SDS011;7664;52.008;4.748;2022-11-20T00:18:44;12.00;;;8.43;;
15126;SDS011;7664;52.008;4.748;2022-11-20T00:21:14;13.07;;;7.97;;
15126;SDS011;7664;52.008;4.748;2022-11-20T00:23:42;13.45;;;7.30;;
15126;SDS011;7664;52.008;4.748;2022-11-20T00:26:11;11.70;;;7.85;;
15126;SDS011;7664;52.008;4.748;2022-11-20T00:28:42;12.80;;;8.25;;
15126;SDS011;7664;52.008;4.748;2022-11-20T00:31:12;10.73;;;7.68;;
15126;SDS011;7664;52.008;4.748;2022-11-20T00:33:41;12.80;;;7.30;;
15126;SDS011;7664;52.008;4.748;2022-11-20T00:36:11;14.48;;;8.48;;
15126;SDS011;7664;52.008;4.748;2022-11-20T00:38:40;12.27;;;7.78;;
15126;SDS011;7664;52.008;4.748;2022-11-20T00:41:09;14.18;;;8.20;;
15126;SDS011;7664;52.008;4.748;2022-11-20T00:43:38;11.88;;;7.78;;
15126;SDS011;7664;52.008;4.748;2022-11-20T00:46:13;10.35;;;7.22;;
15126;SDS011;7664;52.008;4.748;2022-11-20T00:48:43;13.30;;;7.53;;
15126;SDS011;7664;52.008;4.748;2022-11-20T00:51:12;14.88;;;8.68;;
15126;SDS011;7664;52.008;4.748;2022-11-20T00:53:41;11.68;;;7.35;;
15126;SDS011;7664;52.008;4.748;2022-11-20T00:56:10;13.13;;;7.70;;
15126;SDS011;7664;52.008;4.748;2022-11-20T00:58:39;13.05;;;7.85;;
15126;SDS011;7664;52.008;4.748;2022-11-20T01:01:10;13.75;;;8.05;;
15126;SDS011;7664;52.008;4.748;2022-11-20T01:03:40;12.07;;;7.65;;
15126;SDS011;7664;52.008;4.748;2022-11-20T01:06:09;11.57;;;7.63;;
15126;SDS011;7664;52.008;4.748;2022-11-20T01:08:38;12.18;;;8.05;;
15126;SDS011;7664;52.008;4.748;2022-11-20T01:11:11;11.80;;;7.82;;
15126;SDS011;7664;52.008;4.748;2022-11-20T01:13:39;12.50;;;6.72;;
15126;SDS011;7664;52.008;4.748;2022-11-20T01:16:10;11.73;;;7.72;;
15126;SDS011;7664;52.008;4.748;2022-11-20T01:18:40;14.07;;;8.40;;
15126;SDS011;7664;52.008;4.748;2022-11-20T01:21:09;10.38;;;7.28;;
15126;SDS011;7664;52.008;4.748;2022-11-20T01:23:38;14.02;;;9.07;;
15126;SDS011;7664;52.008;4.748;2022-11-20T01:26:08;11.95;;;7.63;;
15126;SDS011;7664;52.008;4.748;2022-11-20T01:28:37;11.25;;;8.00;;
15126;SDS011;7664;52.008;4.748;2022-11-20T01:31:11;15.18;;;7.72;;
15126;SDS011;7664;52.008;4.748;2022-11-20T01:33:40;12.80;;;7.75;;
15126;SDS011;7664;52.008;4.748;2022-11-20T01:36:09;13.65;;;8.32;;
15126;SDS011;7664;52.008;4.748;2022-11-20T01:38:38;11.18;;;7.47;;
15126;SDS011;7664;52.008;4.748;2022-11-20T01:41:07;13.48;;;7.60;;
15126;SDS011;7664;52.008;4.748;2022-11-20T01:43:35;11.65;;;8.20;;
15126;SDS011;7664;52.008;4.748;2022-11-20T01:48:51;12.25;;;7.95;;
15126;SDS011;7664;52.008;4.748;2022-11-20T01:51:24;11.45;;;7.25;;
15126;SDS011;7664;52.008;4.748;2022-11-20T01:53:54;14.13;;;7.97;;
15126;SDS011;7664;52.008;4.748;2022-11-20T01:56:25;13.88;;;8.25;;
15126;SDS011;7664;52.008;4.748;2022-11-20T01:58:54;18.33;;;10.10;;
15126;SDS011;7664;52.008;4.748;2022-11-20T02:01:24;16.98;;;10.30;;
15126;SDS011;7664;52.008;4.748;2022-11-20T02:03:54;15.00;;;9.35;;
15126;SDS011;7664;52.008;4.748;2022-11-20T02:06:23;14.57;;;9.88;;
15126;SDS011;7664;52.008;4.748;2022-11-20T02:08:52;12.60;;;7.95;;
15126;SDS011;7664;52.008;4.748;2022-11-20T02:11:21;13.63;;;7.85;;
15126;SDS011;7664;52.008;4.748;2022-11-20T02:13:50;13.52;;;8.30;;
15126;SDS011;7664;52.008;4.748;2022-11-20T02:16:19;12.70;;;7.70;;
15126;SDS011;7664;52.008;4.748;2022-11-20T02:18:49;12.38;;;8.20;;
15126;SDS011;7664;52.008;4.748;2022-11-20T02:21:21;14.30;;;8.95;;
15126;SDS011;7664;52.008;4.748;2022-11-20T02:23:56;10.80;;;6.78;;
15126;SDS011;7664;52.008;4.748;2022-11-20T02:26:25;11.52;;;7.78;;
15126;SDS011;7664;52.008;4.748;2022-11-20T02:28:54;11.05;;;7.43;;
15126;SDS011;7664;52.008;4.748;2022-11-20T02:31:23;10.98;;;8.18;;
15126;SDS011;7664;52.008;4.748;2022-11-20T02:33:54;12.88;;;7.72;;
15126;SDS011;7664;52.008;4.748;2022-11-20T02:36:22;14.45;;;8.43;;
15126;SDS011;7664;52.008;4.748;2022-11-20T02:38:51;11.07;;;7.38;;
15126;SDS011;7664;52.008;4.748;2022-11-20T02:41:21;11.00;;;7.43;;
15126;SDS011;7664;52.008;4.748;2022-11-20T02:43:50;11.25;;;7.38;;
15126;SDS011;7664;52.008;4.748;2022-11-20T02:46:18;11.25;;;7.10;;
15126;SDS011;7664;52.008;4.748;2022-11-20T02:48:46;12.15;;;7.95;;
15126;SDS011;7664;52.008;4.748;2022-11-20T02:51:15;12.30;;;7.47;;
15126;SDS011;7664;52.008;4.748;2022-11-20T02:53:43;12.75;;;8.00;;
15126;SDS011;7664;52.008;4.748;2022-11-20T02:56:12;13.43;;;8.73;;
15126;SDS011;7664;52.008;4.748;2022-11-20T02:58:41;11.00;;;6.70;;
15126;SDS011;7664;52.008;4.748;2022-11-20T03:01:10;12.63;;;7.85;;
15126;SDS011;7664;52.008;4.748;2022-11-20T03:03:38;11.38;;;8.13;;
15126;SDS011;7664;52.008;4.748;2022-11-20T03:06:07;11.73;;;7.72;;
15126;SDS011;7664;52.008;4.748;2022-11-20T03:08:35;11.68;;;7.82;;
15126;SDS011;7664;52.008;4.748;2022-11-20T03:11:04;13.38;;;8.05;;
15126;SDS011;7664;52.008;4.748;2022-11-20T03:13:33;11.70;;;7.80;;
15126;SDS011;7664;52.008;4.748;2022-11-20T03:16:10;12.77;;;8.07;;
15126;SDS011;7664;52.008;4.748;2022-11-20T03:18:38;11.93;;;7.57;;
15126;SDS011;7664;52.008;4.748;2022-11-20T03:21:07;11.55;;;7.10;;
15126;SDS011;7664;52.008;4.748;2022-11-20T03:23:36;12.88;;;8.38;;
15126;SDS011;7664;52.008;4.748;2022-11-20T03:26:12;12.60;;;8.35;;
15126;SDS011;7664;52.008;4.748;2022-11-20T03:28:41;13.18;;;8.77;;
15126;SDS011;7664;52.008;4.748;2022-11-20T03:31:12;12.05;;;8.20;;
15126;SDS011;7664;52.008;4.748;2022-11-20T03:33:41;11.80;;;7.30;;
15126;SDS011;7664;52.008;4.748;2022-11-20T03:36:10;14.27;;;7.78;;
15126;SDS011;7664;52.008;4.748;2022-11-20T03:38:39;13.15;;;8.13;;
15126;SDS011;7664;52.008;4.748;2022-11-20T03:41:08;12.52;;;7.72;;
15126;SDS011;7664;52.008;4.748;2022-11-20T03:43:36;12.77;;;8.05;;
15126;SDS011;7664;52.008;4.748;2022-11-20T03:46:05;12.85;;;7.47;;
15126;SDS011;7664;52.008;4.748;2022-11-20T03:48:35;12.32;;;8.15;;
15126;SDS011;7664;52.008;4.748;2022-11-20T03:51:07;11.65;;;7.50;;
15126;SDS011;7664;52.008;4.748;2022-11-20T03:53:35;13.25;;;8.13;;
15126;SDS011;7664;52.008;4.748;2022-11-20T03:56:04;11.65;;;7.90;;
15126;SDS011;7664;52.008;4.748;2022-11-20T03:58:33;11.55;;;7.95;;
15126;SDS011;7664;52.008;4.748;2022-11-20T04:01:05;11.75;;;7.75;;
15126;SDS011;7664;52.008;4.748;2022-11-20T04:03:34;11.40;;;7.13;;
15126;SDS011;7664;52.008;4.748;2022-11-20T04:06:05;13.05;;;7.95;;
15126;SDS011;7664;52.008;4.748;2022-11-20T04:08:34;12.80;;;6.97;;
15126;SDS011;7664;52.008;4.748;2022-11-20T04:11:12;12.85;;;7.95;;
15126;SDS011;7664;52.008;4.748;2022-11-20T04:13:41;12.43;;;8.00;;
15126;SDS011;7664;52.008;4.748;2022-11-20T04:16:10;12.02;;;7.90;;
15126;SDS011;7664;52.008;4.748;2022-11-20T04:18:38;12.05;;;8.05;;
15126;SDS011;7664;52.008;4.748;2022-11-20T04:21:08;11.55;;;7.43;;
15126;SDS011;7664;52.008;4.748;2022-11-20T04:23:36;11.52;;;7.45;;
15126;SDS011;7664;52.008;4.748;2022-11-20T04:26:05;12.68;;;7.63;;
15126;SDS011;7664;52.008;4.748;2022-11-20T04:28:34;9.55;;;6.78;;
15126;SDS011;7664;52.008;4.748;2022-11-20T04:31:03;17.13;;;8.75;;
15126;SDS011;7664;52.008;4.748;2022-11-20T04:33:32;11.38;;;7.13;;
15126;SDS011;7664;52.008;4.748;2022-11-20T04:36:01;13.00;;;7.10;;
15126;SDS011;7664;52.008;4.748;2022-11-20T04:38:31;11.15;;;7.57;;
15126;SDS011;7664;52.008;4.748;2022-11-20T04:40:59;12.07;;;7.93;;
15126;SDS011;7664;52.008;4.748;2022-11-20T04:43:28;12.63;;;8.30;;
15126;SDS011;7664;52.008;4.748;2022-11-20T04:45:57;10.80;;;6.90;;
15126;SDS011;7664;52.008;4.748;2022-11-20T04:48:26;13.05;;;7.97;;
15126;SDS011;7664;52.008;4.748;2022-11-20T04:50:55;11.85;;;7.00;;
15126;SDS011;7664;52.008;4.748;2022-11-20T04:53:23;10.98;;;7.72;;
15126;SDS011;7664;52.008;4.748;2022-11-20T04:55:54;13.02;;;7.85;;
15126;SDS011;7664;52.008;4.748;2022-11-20T04:58:27;12.32;;;7.57;;
15126;SDS011;7664;52.008;4.748;2022-11-20T05:01:00;14.50;;;8.77;;
15126;SDS011;7664;52.008;4.748;2022-11-20T05:03:29;10.95;;;8.02;;
15126;SDS011;7664;52.008;4.748;2022-11-20T05:05:59;11.45;;;7.30;;
15126;SDS011;7664;52.008;4.748;2022-11-20T05:08:27;11.35;;;7.75;;
15126;SDS011;7664;52.008;4.748;2022-11-20T05:11:00;12.18;;;7.65;;
15126;SDS011;7664;52.008;4.748;2022-11-20T05:13:29;9.98;;;7.45;;
15126;SDS011;7664;52.008;4.748;2022-11-20T05:16:00;14.95;;;8.32;;
15126;SDS011;7664;52.008;4.748;2022-11-20T05:18:29;11.70;;;7.90;;
15126;SDS011;7664;52.008;4.748;2022-11-20T05:20:57;12.35;;;7.80;;
15126;SDS011;7664;52.008;4.748;2022-11-20T05:23:26;12.32;;;7.60;;
15126;SDS011;7664;52.008;4.748;2022-11-20T05:25:55;13.85;;;7.60;;
15126;SDS011;7664;52.008;4.748;2022-11-20T05:28:26;16.38;;;9.45;;
15126;SDS011;7664;52.008;4.748;2022-11-20T05:30:55;13.85;;;8.52;;
15126;SDS011;7664;52.008;4.748;2022-11-20T05:33:23;14.65;;;9.07;;
15126;SDS011;7664;52.008;4.748;2022-11-20T05:35:51;16.35;;;9.52;;
15126;SDS011;7664;52.008;4.748;2022-11-20T05:38:19;12.13;;;8.45;;
15126;SDS011;7664;52.008;4.748;2022-11-20T05:40:48;13.32;;;8.80;;
15126;SDS011;7664;52.008;4.748;2022-11-20T05:43:16;13.32;;;8.63;;
15126;SDS011;7664;52.008;4.748;2022-11-20T05:45:52;16.40;;;9.95;;
15126;SDS011;7664;52.008;4.748;2022-11-20T05:48:21;13.43;;;8.25;;
15126;SDS011;7664;52.008;4.748;2022-11-20T05:50:49;11.85;;;8.45;;
15126;SDS011;7664;52.008;4.748;2022-11-20T05:53:19;12.20;;;7.63;;
15126;SDS011;7664;52.008;4.748;2022-11-20T05:55:55;12.98;;;8.50;;
15126;SDS011;7664;52.008;4.748;2022-11-20T05:58:24;13.63;;;8.27;;
15126;SDS011;7664;52.008;4.748;2022-11-20T06:00:53;12.57;;;8.30;;
15126;SDS011;7664;52.008;4.748;2022-11-20T06:03:22;13.90;;;7.65;;
15126;SDS011;7664;52.008;4.748;2022-11-20T06:05:50;13.02;;;9.65;;
15126;SDS011;7664;52.008;4.748;2022-11-20T06:08:19;13.98;;;9.35;;
15126;SDS011;7664;52.008;4.748;2022-11-20T06:10:47;14.27;;;8.55;;
15126;SDS011;7664;52.008;4.748;2022-11-20T06:13:16;13.85;;;8.35;;
15126;SDS011;7664;52.008;4.748;2022-11-20T06:15:47;13.20;;;7.88;;
15126;SDS011;7664;52.008;4.748;2022-11-20T06:18:18;11.95;;;7.70;;
15126;SDS011;7664;52.008;4.748;2022-11-20T06:20:46;15.13;;;9.13;;
15126;SDS011;7664;52.008;4.748;2022-11-20T06:23:15;12.98;;;8.73;;
15126;SDS011;7664;52.008;4.748;2022-11-20T06:25:43;13.23;;;8.68;;
15126;SDS011;7664;52.008;4.748;2022-11-20T06:28:12;13.95;;;8.85;;
15126;SDS011;7664;52.008;4.748;2022-11-20T06:30:44;15.27;;;8.52;;
15126;SDS011;7664;52.008;4.748;2022-11-20T06:33:13;13.90;;;8.77;;
15126;SDS011;7664;52.008;4.748;2022-11-20T06:35:43;14.52;;;8.80;;
15126;SDS011;7664;52.008;4.748;2022-11-20T06:38:11;14.68;;;8.65;;
15126;SDS011;7664;52.008;4.748;2022-11-20T06:40:40;13.60;;;8.02;;
15126;SDS011;7664;52.008;4.748;2022-11-20T06:43:08;12.93;;;8.15;;
15126;SDS011;7664;52.008;4.748;2022-11-20T06:45:36;12.00;;;8.10;;
15126;SDS011;7664;52.008;4.748;2022-11-20T06:48:05;15.20;;;8.88;;
15126;SDS011;7664;52.008;4.748;2022-11-20T06:50:33;14.18;;;8.93;;
15126;SDS011;7664;52.008;4.748;2022-11-20T06:53:03;13.73;;;8.95;;
15126;SDS011;7664;52.008;4.748;2022-11-20T06:55:32;13.23;;;8.45;;
15126;SDS011;7664;52.008;4.748;2022-11-20T06:58:00;14.10;;;9.07;;
15126;SDS011;7664;52.008;4.748;2022-11-20T07:00:29;13.73;;;8.30;;
15126;SDS011;7664;52.008;4.748;2022-11-20T07:02:57;14.55;;;8.63;;
15126;SDS011;7664;52.008;4.748;2022-11-20T07:05:26;12.60;;;9.10;;
15126;SDS011;7664;52.008;4.748;2022-11-20T07:07:55;12.10;;;8.15;;
15126;SDS011;7664;52.008;4.748;2022-11-20T07:10:25;12.50;;;8.55;;
15126;SDS011;7664;52.008;4.748;2022-11-20T07:12:54;14.88;;;9.13;;
15126;SDS011;7664;52.008;4.748;2022-11-20T07:15:23;14.88;;;9.07;;
15126;SDS011;7664;52.008;4.748;2022-11-20T07:17:51;14.40;;;9.18;;
15126;SDS011;7664;52.008;4.748;2022-11-20T07:20:20;12.50;;;8.98;;
15126;SDS011;7664;52.008;4.748;2022-11-20T07:22:52;15.10;;;9.27;;
15126;SDS011;7664;52.008;4.748;2022-11-20T07:25:21;13.07;;;8.85;;
15126;SDS011;7664;52.008;4.748;2022-11-20T07:27:51;13.60;;;8.43;;
15126;SDS011;7664;52.008;4.748;2022-11-20T07:30:19;12.93;;;8.45;;
15126;SDS011;7664;52.008;4.748;2022-11-20T07:32:47;13.73;;;9.52;;
15126;SDS011;7664;52.008;4.748;2022-11-20T07:35:18;14.40;;;9.63;;
15126;SDS011;7664;52.008;4.748;2022-11-20T07:37:47;15.15;;;9.50;;
15126;SDS011;7664;52.008;4.748;2022-11-20T07:40:16;15.85;;;9.60;;
15126;SDS011;7664;52.008;4.748;2022-11-20T07:42:47;14.57;;;9.57;;
15126;SDS011;7664;52.008;4.748;2022-11-20T07:45:18;13.48;;;8.77;;
15126;SDS011;7664;52.008;4.748;2022-11-20T07:47:47;15.50;;;8.32;;
15126;SDS011;7664;52.008;4.748;2022-11-20T07:50:15;18.67;;;10.75;;
15126;SDS011;7664;52.008;4.748;2022-11-20T07:52:44;15.63;;;10.05;;
15126;SDS011;7664;52.008;4.748;2022-11-20T07:55:13;14.85;;;10.18;;
15126;SDS011;7664;52.008;4.748;2022-11-20T07:57:42;16.08;;;9.90;;
15126;SDS011;7664;52.008;4.748;2022-11-20T08:00:11;15.55;;;9.18;;
15126;SDS011;7664;52.008;4.748;2022-11-20T08:02:41;13.95;;;9.13;;
15126;SDS011;7664;52.008;4.748;2022-11-20T08:05:09;19.20;;;11.25;;
15126;SDS011;7664;52.008;4.748;2022-11-20T08:07:39;17.83;;;10.73;;
15126;SDS011;7664;52.008;4.748;2022-11-20T08:10:08;15.13;;;9.77;;
15126;SDS011;7664;52.008;4.748;2022-11-20T08:12:42;16.52;;;10.52;;
15126;SDS011;7664;52.008;4.748;2022-11-20T08:15:29;15.65;;;9.73;;
15126;SDS011;7664;52.008;4.748;2022-11-20T08:18:03;16.33;;;10.20;;
15126;SDS011;7664;52.008;4.748;2022-11-20T08:20:51;15.45;;;9.73;;
15126;SDS011;7664;52.008;4.748;2022-11-20T08:23:20;13.88;;;9.40;;
15126;SDS011;7664;52.008;4.748;2022-11-20T08:25:49;14.30;;;9.98;;
15126;SDS011;7664;52.008;4.748;2022-11-20T08:28:18;16.70;;;10.23;;
15126;SDS011;7664;52.008;4.748;2022-11-20T08:30:48;15.18;;;9.77;;
15126;SDS011;7664;52.008;4.748;2022-11-20T08:33:18;13.27;;;9.13;;
15126;SDS011;7664;52.008;4.748;2022-11-20T08:35:49;15.57;;;9.48;;
15126;SDS011;7664;52.008;4.748;2022-11-20T08:38:26;16.20;;;10.70;;
15126;SDS011;7664;52.008;4.748;2022-11-20T08:41:22;16.13;;;10.25;;
15126;SDS011;7664;52.008;4.748;2022-11-20T08:43:54;17.13;;;10.65;;
15126;SDS011;7664;52.008;4.748;2022-11-20T08:46:25;16.02;;;9.73;;
15126;SDS011;7664;52.008;4.748;2022-11-20T08:48:59;14.70;;;9.73;;
15126;SDS011;7664;52.008;4.748;2022-11-20T08:51:47;19.38;;;11.57;;
15126;SDS011;7664;52.008;4.748;2022-11-20T08:54:29;15.20;;;10.30;;
15126;SDS011;7664;52.008;4.748;2022-11-20T08:57:40;14.88;;;10.13;;
15126;SDS011;7664;52.008;4.748;2022-11-20T09:00:17;17.48;;;10.55;;
15126;SDS011;7664;52.008;4.748;2022-11-20T09:02:48;20.15;;;10.75;;
15126;SDS011;7664;52.008;4.748;2022-11-20T09:05:18;17.92;;;10.85;;
15126;SDS011;7664;52.008;4.748;2022-11-20T09:07:56;16.38;;;11.23;;
15126;SDS011;7664;52.008;4.748;2022-11-20T09:10:25;17.60;;;11.45;;
15126;SDS011;7664;52.008;4.748;2022-11-20T09:12:56;17.40;;;10.38;;
15126;SDS011;7664;52.008;4.748;2022-11-20T09:15:25;17.33;;;11.27;;
15126;SDS011;7664;52.008;4.748;2022-11-20T09:17:58;15.23;;;10.75;;
15126;SDS011;7664;52.008;4.748;2022-11-20T09:20:32;18.90;;;11.60;;
15126;SDS011;7664;52.008;4.748;2022-11-20T09:23:18;18.23;;;10.57;;
15126;SDS011;7664;52.008;4.748;2022-11-20T09:26:31;18.23;;;11.50;;
15126;SDS011;7664;52.008;4.748;2022-11-20T09:29:04;18.45;;;11.75;;
15126;SDS011;7664;52.008;4.748;2022-11-20T09:31:41;19.55;;;11.38;;
15126;SDS011;7664;52.008;4.748;2022-11-20T09:34:26;19.63;;;12.63;;
15126;SDS011;7664;52.008;4.748;2022-11-20T09:37:10;18.27;;;11.98;;
15126;SDS011;7664;52.008;4.748;2022-11-20T09:39:41;18.63;;;11.45;;
15126;SDS011;7664;52.008;4.748;2022-11-20T09:45:05;19.40;;;10.40;;
15126;SDS011;7664;52.008;4.748;2022-11-20T09:47:41;18.65;;;10.63;;
15126;SDS011;7664;52.008;4.748;2022-11-20T09:50:18;18.42;;;11.57;;
15126;SDS011;7664;52.008;4.748;2022-11-20T09:52:49;19.60;;;10.80;;
15126;SDS011;7664;52.008;4.748;2022-11-20T09:55:23;18.80;;;11.07;;
15126;SDS011;7664;52.008;4.748;2022-11-20T09:57:52;16.90;;;9.98;;
15126;SDS011;7664;52.008;4.748;2022-11-20T10:00:21;16.95;;;10.75;;
15126;SDS011;7664;52.008;4.748;2022-11-20T10:02:51;19.35;;;11.23;;
15126;SDS011;7664;52.008;4.748;2022-11-20T10:05:21;19.75;;;11.82;;
15126;SDS011;7664;52.008;4.748;2022-11-20T10:07:53;18.00;;;11.25;;
15126;SDS011;7664;52.008;4.748;2022-11-20T10:10:28;17.63;;;10.00;;
15126;SDS011;7664;52.008;4.748;2022-11-20T10:13:04;20.88;;;11.98;;
15126;SDS011;7664;52.008;4.748;2022-11-20T10:15:38;19.67;;;11.88;;
15126;SDS011;7664;52.008;4.748;2022-11-20T10:18:13;19.58;;;11.10;;
15126;SDS011;7664;52.008;4.748;2022-11-20T10:20:47;21.08;;;11.73;;
15126;SDS011;7664;52.008;4.748;2022-11-20T10:26:11;21.58;;;12.35;;
15126;SDS011;7664;52.008;4.748;2022-11-20T10:28:51;18.90;;;11.73;;
15126;SDS011;7664;52.008;4.748;2022-11-20T10:31:28;21.52;;;12.32;;
15126;SDS011;7664;52.008;4.748;2022-11-20T10:33:58;20.13;;;11.77;;
15126;SDS011;7664;52.008;4.748;2022-11-20T10:36:38;23.42;;;11.90;;
15126;SDS011;7664;52.008;4.748;2022-11-20T10:39:12;18.30;;;10.88;;
15126;SDS011;7664;52.008;4.748;2022-11-20T10:41:44;21.42;;;12.68;;
15126;SDS011;7664;52.008;4.748;2022-11-20T10:44:15;18.50;;;10.75;;
15126;SDS011;7664;52.008;4.748;2022-11-20T10:47:20;19.95;;;12.23;;
15126;SDS011;7664;52.008;4.748;2022-11-20T10:49:50;22.58;;;13.55;;
15126;SDS011;7664;52.008;4.748;2022-11-20T10:52:20;21.92;;;12.82;;
15126;SDS011;7664;52.008;4.748;2022-11-20T10:54:53;18.95;;;10.90;;
15126;SDS011;7664;52.008;4.748;2022-11-20T10:57:29;22.38;;;12.27;;
15126;SDS011;7664;52.008;4.748;2022-11-20T11:00:00;23.50;;;12.75;;
15126;SDS011;7664;52.008;4.748;2022-11-20T11:02:31;20.92;;;12.88;;
15126;SDS011;7664;52.008;4.748;2022-11-20T11:05:05;17.33;;;11.48;;
15126;SDS011;7664;52.008;4.748;2022-11-20T11:07:40;20.20;;;11.98;;
15126;SDS011;7664;52.008;4.748;2022-11-20T11:10:13;23.77;;;12.73;;
15126;SDS011;7664;52.008;4.748;2022-11-20T11:12:44;20.15;;;12.10;;
15126;SDS011;7664;52.008;4.748;2022-11-20T11:15:14;22.30;;;13.30;;
15126;SDS011;7664;52.008;4.748;2022-11-20T11:17:53;18.58;;;11.93;;
15126;SDS011;7664;52.008;4.748;2022-11-20T11:20:21;21.92;;;13.57;;
15126;SDS011;7664;52.008;4.748;2022-11-20T11:22:51;24.75;;;13.68;;
15126;SDS011;7664;52.008;4.748;2022-11-20T11:25:23;22.70;;;12.80;;
15126;SDS011;7664;52.008;4.748;2022-11-20T11:27:54;23.50;;;13.25;;
15126;SDS011;7664;52.008;4.748;2022-11-20T11:30:24;24.65;;;12.00;;
15126;SDS011;7664;52.008;4.748;2022-11-20T11:33:02;20.83;;;12.30;;
15126;SDS011;7664;52.008;4.748;2022-11-20T11:35:31;21.70;;;12.85;;
15126;SDS011;7664;52.008;4.748;2022-11-20T11:38:03;24.77;;;14.48;;
15126;SDS011;7664;52.008;4.748;2022-11-20T11:40:34;20.30;;;11.85;;
15126;SDS011;7664;52.008;4.748;2022-11-20T11:43:05;23.13;;;13.45;;
15126;SDS011;7664;52.008;4.748;2022-11-20T11:46:01;27.08;;;13.95;;
15126;SDS011;7664;52.008;4.748;2022-11-20T11:48:29;23.95;;;14.55;;
15126;SDS011;7664;52.008;4.748;2022-11-20T11:50:57;28.38;;;13.68;;
15126;SDS011;7664;52.008;4.748;2022-11-20T11:53:26;25.88;;;13.68;;
15126;SDS011;7664;52.008;4.748;2022-11-20T11:55:56;28.25;;;14.10;;
15126;SDS011;7664;52.008;4.748;2022-11-20T11:58:35;29.10;;;15.60;;
15126;SDS011;7664;52.008;4.748;2022-11-20T12:01:07;31.20;;;14.35;;
15126;SDS011;7664;52.008;4.748;2022-11-20T12:03:39;25.98;;;14.75;;
15126;SDS011;7664;52.008;4.748;2022-11-20T12:06:10;29.48;;;16.02;;
15126;SDS011;7664;52.008;4.748;2022-11-20T12:08:41;29.88;;;15.65;;
15126;SDS011;7664;52.008;4.748;2022-11-20T12:11:12;29.60;;;15.38;;
15126;SDS011;7664;52.008;4.748;2022-11-20T12:13:47;27.27;;;15.60;;
15126;SDS011;7664;52.008;4.748;2022-11-20T12:16:17;28.30;;;14.75;;
15126;SDS011;7664;52.008;4.748;2022-11-20T12:18:47;28.58;;;15.68;;
15126;SDS011;7664;52.008;4.748;2022-11-20T12:21:20;29.33;;;15.32;;
15126;SDS011;7664;52.008;4.748;2022-11-20T12:23:55;26.20;;;15.13;;
15126;SDS011;7664;52.008;4.748;2022-11-20T12:26:30;31.10;;;17.25;;
15126;SDS011;7664;52.008;4.748;2022-11-20T12:29:06;27.48;;;14.85;;
15126;SDS011;7664;52.008;4.748;2022-11-20T12:31:39;26.70;;;15.02;;
15126;SDS011;7664;52.008;4.748;2022-11-20T12:34:18;23.73;;;13.77;;
15126;SDS011;7664;52.008;4.748;2022-11-20T12:36:52;25.63;;;14.60;;
15126;SDS011;7664;52.008;4.748;2022-11-20T12:39:28;25.95;;;15.25;;
15126;SDS011;7664;52.008;4.748;2022-11-20T12:42:02;24.70;;;13.90;;
15126;SDS011;7664;52.008;4.748;2022-11-20T12:47:51;27.65;;;14.77;;
15126;SDS011;7664;52.008;4.748;2022-11-20T12:50:26;32.92;;;16.63;;
15126;SDS011;7664;52.008;4.748;2022-11-20T12:53:01;29.60;;;16.15;;
15126;SDS011;7664;52.008;4.748;2022-11-20T12:55:42;28.25;;;14.50;;
15126;SDS011;7664;52.008;4.748;2022-11-20T12:58:18;28.90;;;14.82;;
15126;SDS011;7664;52.008;4.748;2022-11-20T13:00:52;25.75;;;13.48;;
15126;SDS011;7664;52.008;4.748;2022-11-20T13:03:27;27.65;;;15.32;;
15126;SDS011;7664;52.008;4.748;2022-11-20T13:06:02;27.85;;;14.60;;
15126;SDS011;7664;52.008;4.748;2022-11-20T13:08:33;30.27;;;15.63;;
15126;SDS011;7664;52.008;4.748;2022-11-20T13:11:05;29.67;;;15.27;;
15126;SDS011;7664;52.008;4.748;2022-11-20T13:13:42;28.83;;;15.15;;
15126;SDS011;7664;52.008;4.748;2022-11-20T13:16:15;26.05;;;14.25;;
15126;SDS011;7664;52.008;4.748;2022-11-20T13:18:48;26.73;;;15.60;;
15126;SDS011;7664;52.008;4.748;2022-11-20T13:21:18;27.02;;;15.70;;
15126;SDS011;7664;52.008;4.748;2022-11-20T13:23:46;29.08;;;15.07;;
15126;SDS011;7664;52.008;4.748;2022-11-20T13:26:18;35.25;;;17.33;;
15126;SDS011;7664;52.008;4.748;2022-11-20T13:28:48;36.38;;;18.00;;
15126;SDS011;7664;52.008;4.748;2022-11-20T13:31:28;29.20;;;16.42;;
15126;SDS011;7664;52.008;4.748;2022-11-20T13:34:02;29.58;;;16.00;;
15126;SDS011;7664;52.008;4.748;2022-11-20T13:36:48;32.45;;;15.80;;
15126;SDS011;7664;52.008;4.748;2022-11-20T13:39:24;33.53;;;17.17;;
15126;SDS011;7664;52.008;4.748;2022-11-20T13:41:54;32.00;;;15.65;;
15126;SDS011;7664;52.008;4.748;2022-11-20T13:44:27;28.65;;;15.95;;
15126;SDS011;7664;52.008;4.748;2022-11-20T13:46:57;30.02;;;15.10;;
15126;SDS011;7664;52.008;4.748;2022-11-20T13:49:29;32.78;;;16.75;;
15126;SDS011;7664;52.008;4.748;2022-11-20T13:52:06;34.10;;;16.95;;
15126;SDS011;7664;52.008;4.748;2022-11-20T13:54:43;35.58;;;16.35;;
15126;SDS011;7664;52.008;4.748;2022-11-20T13:57:24;32.53;;;17.23;;
15126;SDS011;7664;52.008;4.748;2022-11-20T13:59:57;31.83;;;17.05;;
15126;SDS011;7664;52.008;4.748;2022-11-20T14:02:27;35.13;;;17.48;;
15126;SDS011;7664;52.008;4.748;2022-11-20T14:04:58;30.23;;;15.25;;
15126;SDS011;7664;52.008;4.748;2022-11-20T14:07:31;30.55;;;15.05;;
15126;SDS011;7664;52.008;4.748;2022-11-20T14:10:01;33.40;;;16.10;;
15126;SDS011;7664;52.008;4.748;2022-11-20T14:12:31;37.67;;;18.10;;
15126;SDS011;7664;52.008;4.748;2022-11-20T14:15:22;33.78;;;16.98;;
15126;SDS011;7664;52.008;4.748;2022-11-20T14:17:51;29.50;;;16.30;;
15126;SDS011;7664;52.008;4.748;2022-11-20T14:20:22;39.58;;;18.85;;
15126;SDS011;7664;52.008;4.748;2022-11-20T14:22:52;32.25;;;16.05;;
15126;SDS011;7664;52.008;4.748;2022-11-20T14:25:21;36.50;;;17.77;;
15126;SDS011;7664;52.008;4.748;2022-11-20T14:27:53;37.67;;;17.98;;
15126;SDS011;7664;52.008;4.748;2022-11-20T14:30:23;38.38;;;19.25;;
15126;SDS011;7664;52.008;4.748;2022-11-20T14:32:53;34.90;;;17.23;;
15126;SDS011;7664;52.008;4.748;2022-11-20T14:35:23;37.75;;;17.73;;
15126;SDS011;7664;52.008;4.748;2022-11-20T14:37:52;28.83;;;16.50;;
15126;SDS011;7664;52.008;4.748;2022-11-20T14:40:23;37.10;;;17.88;;
15126;SDS011;7664;52.008;4.748;2022-11-20T14:42:52;44.55;;;19.70;;
15126;SDS011;7664;52.008;4.748;2022-11-20T14:45:21;41.63;;;21.35;;
15126;SDS011;7664;52.008;4.748;2022-11-20T14:47:50;41.80;;;19.65;;
15126;SDS011;7664;52.008;4.748;2022-11-20T14:50:22;40.22;;;20.30;;
15126;SDS011;7664;52.008;4.748;2022-11-20T14:52:52;40.83;;;19.95;;
15126;SDS011;7664;52.008;4.748;2022-11-20T14:55:26;39.58;;;19.50;;
15126;SDS011;7664;52.008;4.748;2022-11-20T14:57:54;39.95;;;19.17;;
15126;SDS011;7664;52.008;4.748;2022-11-20T15:00:23;37.83;;;17.65;;
15126;SDS011;7664;52.008;4.748;2022-11-20T15:02:52;41.47;;;19.75;;
15126;SDS011;7664;52.008;4.748;2022-11-20T15:05:22;39.17;;;19.75;;
15126;SDS011;7664;52.008;4.748;2022-11-20T15:08:03;38.95;;;18.70;;
15126;SDS011;7664;52.008;4.748;2022-11-20T15:10:32;36.40;;;18.77;;
15126;SDS011;7664;52.008;4.748;2022-11-20T15:13:02;36.70;;;19.58;;
15126;SDS011;7664;52.008;4.748;2022-11-20T15:15:39;38.83;;;19.88;;
15126;SDS011;7664;52.008;4.748;2022-11-20T15:18:10;32.90;;;17.38;;